Time;durP1;ratioP1;P1;durP2;ratioP2;P2;SDS_P1;SDS_P2;PMS_P1;PMS_P2;Temp;Humidity;BMP_temperature;BMP_pressure;BME280_temperature;BME280_humidity;BME280_pressure;Samples;Min_cycle;Max_cycle;Signal;HPM_P1;HPM_P2
2023/08/24 00:01:33;;;;;;;;;;;;;;;19.74;41.75;100944.34;4864927;28;97889;-77
2023/08/24 00:04:01;;;;;;;;;;;;;;;19.70;41.69;100935.19;4864975;28;98341;-72
2023/08/24 00:06:27;;;;;;;;;;;;;;;19.64;41.78;100946.56;4901402;28;98262;-72
2023/08/24 00:08:54;;;;;;;;;;;;;;;19.58;41.70;100933.00;4849743;28;99201;-73
2023/08/24 00:11:21;;;;;;;;;;;;;;;19.54;41.78;100937.50;4870105;28;98316;-76
2023/08/24 00:13:52;;;;;;;;;;;;;;;19.50;41.79;100935.72;4867102;28;100544;-77
2023/08/24 00:16:20;;;;;;;;;;;;;;;19.47;41.96;100941.81;4865642;28;98054;-73
2023/08/24 00:18:46;;;;;;;;;;;;;;;19.45;41.72;100941.31;4869092;28;98104;-72
2023/08/24 00:21:22;;;;;;;;;;;;;;;19.44;41.90;100956.91;4869790;28;98533;-77
2023/08/24 00:23:52;;;;;;;;;;;;;;;19.44;41.71;100956.91;4866394;28;98303;-72
2023/08/24 00:26:19;;;;;;;;;;;;;;;19.44;41.78;100953.38;4883686;28;98277;-77
2023/08/24 00:28:46;;;;;;;;;;;;;;;19.42;41.83;100950.97;4900173;28;99183;-73
2023/08/24 00:31:13;;;;;;;;;;;;;;;19.40;41.81;100952.41;4861903;28;98338;-76
2023/08/24 00:33:40;;;;;;;;;;;;;;;19.38;41.73;100955.44;4867518;28;98630;-73
2023/08/24 00:36:06;;;;;;;;;;;;;;;19.36;41.73;100949.47;4867146;28;98346;-77
2023/08/24 00:38:33;;;;;;;;;;;;;;;19.33;41.77;100953.63;4868780;28;99434;-73
2023/08/24 00:40:59;;;;;;;;;;;;;;;19.31;42.05;100955.91;4885667;28;99506;-77
2023/08/24 00:43:27;;;;;;;;;;;;;;;19.28;41.93;100945.59;4884810;28;99458;-73
2023/08/24 00:45:56;;;;;;;;;;;;;;;19.25;42.02;100942.66;4869022;28;98108;-77
2023/08/24 00:48:28;;;;;;;;;;;;;;;19.22;41.97;100943.31;4884610;28;98215;-72
2023/08/24 00:50:56;;;;;;;;;;;;;;;19.17;41.96;100946.16;4880539;28;98177;-72
2023/08/24 00:53:23;;;;;;;;;;;;;;;19.13;41.88;100946.78;4870240;28;98240;-73
2023/08/24 00:55:49;;;;;;;;;;;;;;;19.11;41.86;100940.84;4881779;28;100540;-73
2023/08/24 00:58:15;;;;;;;;;;;;;;;19.08;41.97;100951.59;4873536;28;99763;-77
2023/08/24 01:00:42;;;;;;;;;;;;;;;19.07;41.97;100947.25;4888495;28;98212;-77
2023/08/24 01:03:08;;;;;;;;;;;;;;;19.06;42.13;100949.19;4887600;28;98803;-73
2023/08/24 01:05:35;;;;;;;;;;;;;;;19.04;41.76;100940.47;4883641;28;98266;-76
2023/08/24 01:08:02;;;;;;;;;;;;;;;19.02;41.84;100940.00;4869533;28;98199;-76
2023/08/24 01:10:31;;;;;;;;;;;;;;;19.00;42.03;100944.16;4902206;28;98099;-76
2023/08/24 01:13:02;;;;;;;;;;;;;;;18.98;41.88;100943.63;4871011;28;98452;-76
2023/08/24 01:15:31;;;;;;;;;;;;;;;18.94;41.96;100940.72;4879696;28;98244;-72
2023/08/24 01:18:00;;;;;;;;;;;;;;;18.92;42.04;100948.44;4901246;28;98030;-77
2023/08/24 01:20:27;;;;;;;;;;;;;;;18.91;42.04;100946.03;4870558;28;98136;-76
2023/08/24 01:23:21;;;;;;;;;;;;;;;18.88;42.08;100947.44;4869337;28;98216;-78
2023/08/24 01:25:55;;;;;;;;;;;;;;;18.86;42.01;100939.59;4903091;28;98077;-72
2023/08/24 01:28:21;;;;;;;;;;;;;;;18.84;42.03;100939.06;4853373;28;98094;-76
2023/08/24 01:30:48;;;;;;;;;;;;;;;18.83;42.04;100942.13;4888412;28;98531;-77
2023/08/24 01:33:15;;;;;;;;;;;;;;;18.79;42.21;100947.41;4866916;28;98318;-72
2023/08/24 01:35:43;;;;;;;;;;;;;;;18.77;42.09;100944.16;4869297;28;98308;-73
2023/08/24 01:38:13;;;;;;;;;;;;;;;18.75;42.22;100949.13;4870469;28;99711;-72
2023/08/24 01:41:03;;;;;;;;;;;;;;;18.72;41.80;100951.69;4872467;28;98084;-77
2023/08/24 01:43:35;;;;;;;;;;;;;;;18.67;42.05;100944.41;4886629;28;98216;-72
2023/08/24 01:46:04;;;;;;;;;;;;;;;18.69;42.27;100941.34;4868340;28;100664;-77
2023/08/24 01:48:31;;;;;;;;;;;;;;;18.71;42.18;100936.44;4880354;28;98205;-72
2023/08/24 01:50:58;;;;;;;;;;;;;;;18.74;42.25;100935.78;4883104;28;98508;-77
2023/08/24 01:53:25;;;;;;;;;;;;;;;18.78;42.22;100929.38;4869382;28;98314;-72
2023/08/24 01:55:53;;;;;;;;;;;;;;;18.82;42.17;100938.59;4885262;28;99614;-77
2023/08/24 01:58:19;;;;;;;;;;;;;;;18.85;42.05;100937.16;4868824;28;98200;-77
2023/08/24 02:00:46;;;;;;;;;;;;;;;18.86;41.96;100936.03;4871602;28;98700;-77
2023/08/24 02:03:12;;;;;;;;;;;;;;;18.88;42.24;100933.78;4885477;28;97976;-72
2023/08/24 02:05:38;;;;;;;;;;;;;;;18.90;42.06;100937.00;4889949;28;98140;-72
2023/08/24 02:08:05;;;;;;;;;;;;;;;18.92;42.22;100937.50;4852666;28;98386;-72
2023/08/24 02:10:32;;;;;;;;;;;;;;;18.94;42.10;100942.66;4873765;28;98178;-77
2023/08/24 02:12:58;;;;;;;;;;;;;;;18.94;42.31;100942.66;4886646;28;98329;-72
2023/08/24 02:15:26;;;;;;;;;;;;;;;18.96;42.22;100934.97;4887543;28;98517;-72
2023/08/24 02:17:52;;;;;;;;;;;;;;;18.96;42.19;100933.03;4890785;28;98557;-76
2023/08/24 02:20:19;;;;;;;;;;;;;;;18.96;42.12;100929.50;4885597;28;97913;-72
2023/08/24 02:22:45;;;;;;;;;;;;;;;18.94;42.32;100924.34;4865407;28;98666;-73
2023/08/24 02:25:11;;;;;;;;;;;;;;;18.92;42.27;100932.06;4871273;28;98637;-77
2023/08/24 02:27:38;;;;;;;;;;;;;;;18.89;42.22;100924.47;4887232;28;98300;-76
2023/08/24 02:30:06;;;;;;;;;;;;;;;18.86;42.20;100925.94;4867373;28;98277;-71
2023/08/24 02:32:32;;;;;;;;;;;;;;;18.84;42.22;100924.63;4884673;28;99004;-76
2023/08/24 02:35:00;;;;;;;;;;;;;;;18.81;42.26;100931.50;4865021;28;97982;-72
2023/08/24 02:37:27;;;;;;;;;;;;;;;18.78;42.19;100926.66;4851570;28;98410;-75
2023/08/24 02:39:54;;;;;;;;;;;;;;;18.75;42.43;100921.03;4870576;28;98194;-72
2023/08/24 02:42:20;;;;;;;;;;;;;;;18.72;42.21;100927.91;4901199;28;98447;-72
2023/08/24 02:44:47;;;;;;;;;;;;;;;18.70;42.30;100923.84;4859258;28;97944;-76
2023/08/24 02:47:14;;;;;;;;;;;;;;;18.67;42.30;100927.19;4884283;28;98423;-76
2023/08/24 02:49:41;;;;;;;;;;;;;;;18.62;42.36;100931.66;4869557;28;98639;-72
2023/08/24 02:52:07;;;;;;;;;;;;;;;18.56;42.52;100929.38;4883086;28;98141;-72
2023/08/24 02:54:35;;;;;;;;;;;;;;;18.54;42.30;100928.84;4853219;28;99435;-72
2023/08/24 02:57:01;;;;;;;;;;;;;;;18.50;42.37;100927.88;4888030;28;98317;-76
2023/08/24 02:59:28;;;;;;;;;;;;;;;18.47;42.52;100931.22;4863572;28;99030;-72
2023/08/24 03:01:55;;;;;;;;;;;;;;;18.44;42.54;100926.38;4880725;28;98269;-72
2023/08/24 03:04:22;;;;;;;;;;;;;;;18.40;42.37;100929.72;4864326;28;98231;-72
2023/08/24 03:06:49;;;;;;;;;;;;;;;18.36;42.56;100930.66;4883349;28;98168;-72
2023/08/24 03:09:15;;;;;;;;;;;;;;;18.32;42.53;100926.94;4868904;28;98410;-76
2023/08/24 03:11:42;;;;;;;;;;;;;;;18.29;42.46;100928.34;4883987;28;99051;-72
2023/08/24 03:14:09;;;;;;;;;;;;;;;18.26;42.41;100928.16;4869497;28;98431;-72
2023/08/24 03:16:37;;;;;;;;;;;;;;;18.22;42.47;100924.44;4869040;28;97947;-72
2023/08/24 03:19:03;;;;;;;;;;;;;;;18.17;42.46;100925.34;4885308;28;98495;-72
2023/08/24 03:21:30;;;;;;;;;;;;;;;18.14;42.62;100926.75;4870171;28;98347;-74
2023/08/24 03:23:57;;;;;;;;;;;;;;;18.10;42.64;100923.03;4868329;28;98447;-72
2023/08/24 03:26:24;;;;;;;;;;;;;;;18.05;42.44;100923.16;4883768;28;98747;-76
2023/08/24 03:28:51;;;;;;;;;;;;;;;17.99;42.61;100920.84;4883089;28;98286;-76
2023/08/24 03:31:17;;;;;;;;;;;;;;;17.94;42.42;100927.22;4857614;28;98303;-77
2023/08/24 03:33:45;;;;;;;;;;;;;;;17.90;42.62;100926.22;4885958;28;98009;-72
2023/08/24 03:36:12;;;;;;;;;;;;;;;17.86;42.55;100930.66;4871515;28;98208;-72
2023/08/24 03:38:39;;;;;;;;;;;;;;;17.83;42.59;100923.88;4887047;28;98219;-76
2023/08/24 03:41:08;;;;;;;;;;;;;;;17.81;42.71;100926.13;4869657;28;98460;-76
2023/08/24 03:43:35;;;;;;;;;;;;;;;17.80;42.49;100934.59;4864959;28;98376;-77
2023/08/24 03:46:03;;;;;;;;;;;;;;;17.78;42.70;100932.19;4866978;28;98136;-72
2023/08/24 03:48:30;;;;;;;;;;;;;;;17.77;42.60;100932.50;4855863;28;98371;-72
2023/08/24 03:50:58;;;;;;;;;;;;;;;17.74;42.45;100931.16;4861866;28;98263;-72
2023/08/24 03:53:25;;;;;;;;;;;;;;;17.72;42.68;100927.09;4869826;28;99222;-77
2023/08/24 03:55:53;;;;;;;;;;;;;;;17.70;42.68;100923.88;4870394;28;99181;-77
2023/08/24 03:58:19;;;;;;;;;;;;;;;17.67;42.50;100923.38;4870170;28;98547;-77
2023/08/24 04:00:46;;;;;;;;;;;;;;;17.66;42.73;100924.47;4870876;28;98386;-77
2023/08/24 04:03:12;;;;;;;;;;;;;;;17.66;42.67;100918.22;4886798;28;98507;-76
2023/08/24 04:05:39;;;;;;;;;;;;;;;17.64;42.62;100924.00;4880812;28;98259;-72
2023/08/24 04:08:07;;;;;;;;;;;;;;;17.63;42.65;100922.34;4865251;28;98080;-72
2023/08/24 04:10:33;;;;;;;;;;;;;;;17.64;42.46;100925.88;4874299;28;98196;-76
2023/08/24 04:13:01;;;;;;;;;;;;;;;17.65;42.79;100924.78;4866393;28;99941;-77
2023/08/24 04:15:28;;;;;;;;;;;;;;;17.64;42.44;100918.53;4886556;28;98409;-72
2023/08/24 04:17:54;;;;;;;;;;;;;;;17.63;42.51;100918.81;4869523;28;98307;-72
2023/08/24 04:20:21;;;;;;;;;;;;;;;17.63;42.49;100930.53;4880117;28;99646;-72
2023/08/24 04:22:48;;;;;;;;;;;;;;;17.63;42.66;100940.63;4870449;28;98558;-72
2023/08/24 04:25:14;;;;;;;;;;;;;;;17.61;42.60;100930.03;4886099;28;99009;-76
2023/08/24 04:27:41;;;;;;;;;;;;;;;17.61;42.61;100929.25;4868517;28;98135;-72
2023/08/24 04:30:11;;;;;;;;;;;;;;;17.60;42.51;100933.06;4855792;28;98272;-76
2023/08/24 04:32:38;;;;;;;;;;;;;;;17.61;42.53;100931.97;4909008;28;98066;-76
2023/08/24 04:35:05;;;;;;;;;;;;;;;17.63;42.50;100921.56;4871487;28;98171;-76
2023/08/24 04:37:33;;;;;;;;;;;;;;;17.65;42.51;100920.16;4864983;28;98177;-72
2023/08/24 04:40:01;;;;;;;;;;;;;;;17.67;42.44;100922.56;4865420;28;98485;-76
2023/08/24 04:42:27;;;;;;;;;;;;;;;17.63;42.45;100925.09;4883074;28;98536;-72
2023/08/24 04:44:53;;;;;;;;;;;;;;;17.60;42.41;100933.84;4876466;28;97973;-76
2023/08/24 04:47:19;;;;;;;;;;;;;;;17.62;42.57;100933.56;4883694;28;98155;-76
2023/08/24 04:49:47;;;;;;;;;;;;;;;17.63;42.47;100930.53;4869415;28;98150;-72
2023/08/24 04:52:14;;;;;;;;;;;;;;;17.69;42.39;100933.97;4881259;28;98114;-76
2023/08/24 04:54:40;;;;;;;;;;;;;;;17.74;42.34;100931.16;4855731;28;98397;-76
2023/08/24 04:57:06;;;;;;;;;;;;;;;17.81;42.51;100925.31;4862007;28;98131;-77
2023/08/24 04:59:32;;;;;;;;;;;;;;;17.85;42.51;100920.88;4882460;28;98288;-72
2023/08/24 05:01:59;;;;;;;;;;;;;;;17.86;42.44;100931.47;4864162;28;98342;-76
2023/08/24 05:04:25;;;;;;;;;;;;;;;17.88;42.23;100931.97;4879486;28;98237;-75
2023/08/24 05:06:52;;;;;;;;;;;;;;;17.91;42.36;100925.91;4868702;28;98507;-73
2023/08/24 05:09:19;;;;;;;;;;;;;;;17.93;42.15;100938.44;4865369;28;99591;-71
2023/08/24 05:11:46;;;;;;;;;;;;;;;17.93;42.28;100936.50;4867064;28;98430;-77
2023/08/24 05:14:14;;;;;;;;;;;;;;;17.94;42.43;100934.59;4878546;28;98103;-76
2023/08/24 05:16:43;;;;;;;;;;;;;;;17.96;42.38;100933.19;4862367;28;98160;-76
2023/08/24 05:19:10;;;;;;;;;;;;;;;17.99;42.24;100931.75;4868584;28;98343;-72
2023/08/24 05:21:38;;;;;;;;;;;;;;;18.01;42.36;100930.34;4866077;28;99321;-76
2023/08/24 05:24:05;;;;;;;;;;;;;;;18.06;42.40;100924.75;4847947;28;98463;-76
2023/08/24 05:26:32;;;;;;;;;;;;;;;18.11;42.25;100930.09;4844012;28;98151;-75
2023/08/24 05:28:58;;;;;;;;;;;;;;;18.18;42.22;100932.41;4845405;28;98312;-75
2023/08/24 05:31:24;;;;;;;;;;;;;;;18.27;42.12;100924.31;4864461;28;99661;-76
2023/08/24 05:33:51;;;;;;;;;;;;;;;18.37;42.20;100924.88;4861569;28;98839;-76
2023/08/24 05:36:18;;;;;;;;;;;;;;;18.48;42.16;100919.19;4862103;28;98207;-72
2023/08/24 05:38:46;;;;;;;;;;;;;;;18.59;42.02;100920.56;4844938;28;99916;-72
2023/08/24 05:41:14;;;;;;;;;;;;;;;18.72;42.05;100918.91;4849330;28;98001;-71
2023/08/24 05:43:41;;;;;;;;;;;;;;;18.82;42.12;100921.38;4860592;28;98358;-72
2023/08/24 05:46:08;;;;;;;;;;;;;;;18.94;41.88;100921.59;4880845;28;98184;-76
2023/08/24 05:48:35;;;;;;;;;;;;;;;19.06;42.03;100919.13;4859529;28;104063;-72
2023/08/24 05:51:02;;;;;;;;;;;;;;;19.15;42.05;100919.16;4862696;28;97960;-76
2023/08/24 05:53:29;;;;;;;;;;;;;;;19.24;41.94;100913.75;4843400;28;98629;-76
2023/08/24 05:55:58;;;;;;;;;;;;;;;19.33;41.85;100914.56;4868148;28;98077;-76
2023/08/24 05:58:25;;;;;;;;;;;;;;;19.43;41.68;100910.78;4846114;28;100508;-77
2023/08/24 06:00:58;;;;;;;;;;;;;;;19.52;41.70;100917.88;4844232;28;98020;-72
2023/08/24 06:03:26;;;;;;;;;;;;;;;19.64;41.70;100911.81;4863760;28;101524;-76
2023/08/24 06:05:53;;;;;;;;;;;;;;;19.72;41.68;100921.97;4856073;28;98255;-71
2023/08/24 06:08:20;;;;;;;;;;;;;;;19.85;41.62;100917.53;4847289;28;98464;-71
2023/08/24 06:10:46;;;;;;;;;;;;;;;20.02;41.67;100923.00;4860925;28;100814;-71
2023/08/24 06:13:12;;;;;;;;;;;;;;;20.20;41.57;100912.91;4858281;28;98165;-76
2023/08/24 06:15:39;;;;;;;;;;;;;;;20.39;41.44;100909.03;4854287;28;98024;-71
2023/08/24 06:18:06;;;;;;;;;;;;;;;20.57;41.37;100910.66;4860935;28;98506;-71
2023/08/24 06:20:32;;;;;;;;;;;;;;;20.78;41.31;100908.84;4877898;28;97881;-76
2023/08/24 06:22:59;;;;;;;;;;;;;;;20.99;41.08;100897.22;4880263;28;98499;-71
2023/08/24 06:25:26;;;;;;;;;;;;;;;21.21;40.97;100898.91;4868198;28;98071;-72
2023/08/24 06:27:53;;;;;;;;;;;;;;;21.42;40.90;100902.56;4886563;28;98393;-70
2023/08/24 06:30:20;;;;;;;;;;;;;;;21.68;40.90;100894.19;4854336;28;98960;-77
2023/08/24 06:32:47;;;;;;;;;;;;;;;21.93;40.66;100905.31;4884655;28;98036;-77
2023/08/24 06:35:14;;;;;;;;;;;;;;;22.15;40.52;100902.28;4867810;28;98078;-77
2023/08/24 06:37:42;;;;;;;;;;;;;;;22.40;40.51;100899.66;4887541;28;99737;-76
2023/08/24 06:40:09;;;;;;;;;;;;;;;22.65;40.47;100901.38;4868311;28;98103;-77
2023/08/24 06:42:35;;;;;;;;;;;;;;;22.93;40.26;100898.03;4876705;28;98292;-71
2023/08/24 06:45:02;;;;;;;;;;;;;;;23.27;40.21;100894.88;4884114;28;98446;-71
2023/08/24 06:47:28;;;;;;;;;;;;;;;23.82;39.66;100900.16;4887948;28;98201;-70
2023/08/24 06:49:54;;;;;;;;;;;;;;;25.20;38.69;100903.28;4899818;28;98709;-70
2023/08/24 06:52:21;;;;;;;;;;;;;;;27.28;37.36;100905.69;4883158;28;98574;-71
2023/08/24 06:54:53;;;;;;;;;;;;;;;29.79;35.86;100907.41;4882509;28;97981;-71
2023/08/24 06:57:20;;;;;;;;;;;;;;;32.63;33.78;100921.06;4869099;28;98062;-76
2023/08/24 06:59:47;;;;;;;;;;;;;;;35.12;32.82;100922.41;4869933;28;100358;-76
2023/08/24 07:02:13;;;;;;;;;;;;;;;37.16;31.85;100928.75;4880252;28;98225;-70
2023/08/24 07:04:40;;;;;;;;;;;;;;;38.57;31.49;100927.28;4866885;28;99959;-76
2023/08/24 07:07:09;;;;;;;;;;;;;;;39.20;31.88;100926.47;4864288;28;98443;-76
2023/08/24 07:09:36;;;;;;;;;;;;;;;37.86;33.71;100916.88;4869798;28;98177;-76
2023/08/24 07:12:06;;;;;;;;;;;;;;;37.81;33.96;100921.03;4869049;28;98292;-77
2023/08/24 07:14:33;;;;;;;;;;;;;;;36.44;35.07;100905.13;4878746;28;98132;-70
2023/08/24 07:16:59;;;;;;;;;;;;;;;35.36;35.99;100897.22;4868100;28;98310;-70
2023/08/24 07:19:27;;;;;;;;;;;;;;;34.56;36.80;100891.28;4869235;28;97968;-76
2023/08/24 07:21:53;;;;;;;;;;;;;;;34.11;36.65;100885.06;4870428;28;98028;-70
2023/08/24 07:24:20;;;;;;;;;;;;;;;33.57;37.26;100888.47;4869922;28;98349;-76
2023/08/24 07:26:47;;;;;;;;;;;;;;;33.01;37.62;100896.09;4868835;28;99968;-71
2023/08/24 07:29:15;;;;;;;;;;;;;;;32.62;38.16;100901.94;4871971;28;98224;-70
2023/08/24 07:31:41;;;;;;;;;;;;;;;32.20;38.18;100882.22;4853125;28;98311;-70
2023/08/24 07:34:09;;;;;;;;;;;;;;;31.85;38.32;100888.72;4849563;28;97995;-76
2023/08/24 07:36:35;;;;;;;;;;;;;;;31.66;38.47;100887.16;4868047;28;99560;-75
2023/08/24 07:39:02;;;;;;;;;;;;;;;31.65;38.50;100890.34;4868650;28;98216;-71
2023/08/24 07:41:30;;;;;;;;;;;;;;;31.60;38.38;100891.56;4850974;28;99874;-71
2023/08/24 07:43:57;;;;;;;;;;;;;;;31.59;38.68;100880.81;4902491;28;98154;-71
2023/08/24 07:46:23;;;;;;;;;;;;;;;31.69;38.25;100880.78;4852949;28;98085;-71
2023/08/24 07:48:49;;;;;;;;;;;;;;;31.80;38.18;100880.75;4848806;28;98180;-70
2023/08/24 07:51:16;;;;;;;;;;;;;;;31.75;38.27;100875.59;4866215;28;98954;-70
2023/08/24 07:53:43;;;;;;;;;;;;;;;31.72;38.36;100870.84;4881197;28;98296;-75
2023/08/24 07:56:09;;;;;;;;;;;;;;;31.74;38.51;100887.94;4866432;28;98585;-71
2023/08/24 07:58:36;;;;;;;;;;;;;;;31.63;38.37;100885.16;4884369;28;98323;-75
2023/08/24 08:01:03;;;;;;;;;;;;;;;31.68;38.40;100884.00;4862901;28;98111;-75
2023/08/24 08:03:30;;;;;;;;;;;;;;;31.89;38.15;100883.94;4860794;28;98218;-71
2023/08/24 08:05:58;;;;;;;;;;;;;;;32.26;37.86;100886.16;4882761;28;98172;-76
2023/08/24 08:08:26;;;;;;;;;;;;;;;32.95;37.29;100883.81;4884181;28;98572;-76
2023/08/24 08:11:02;;;;;;;;;;;;;;;33.85;36.25;100878.19;4869372;28;98208;-76
2023/08/24 08:13:28;;;;;;;;;;;;;;;34.69;35.77;100881.09;4868486;28;98159;-71
2023/08/24 08:16:03;;;;;;;;;;;;;;;35.59;35.21;100893.63;4868535;28;99159;-76
2023/08/24 08:18:29;;;;;;;;;;;;;;;36.53;34.66;100888.50;4877807;28;98580;-76
2023/08/24 08:20:55;;;;;;;;;;;;;;;37.34;34.12;100884.13;4869923;28;99061;-76
2023/08/24 08:23:22;;;;;;;;;;;;;;;38.09;33.91;100878.50;4864888;28;98370;-76
2023/08/24 08:25:48;;;;;;;;;;;;;;;38.90;33.64;100885.63;4857117;28;98386;-71
2023/08/24 08:28:14;;;;;;;;;;;;;;;39.57;33.44;100881.72;4879235;28;99363;-71
2023/08/24 08:30:40;;;;;;;;;;;;;;;40.31;33.26;100883.03;4859672;28;98040;-77
2023/08/24 08:33:06;;;;;;;;;;;;;;;41.03;32.63;100878.09;4865782;28;98140;-77
2023/08/24 08:35:32;;;;;;;;;;;;;;;41.52;32.88;100878.00;4859952;28;100220;-72
2023/08/24 08:37:59;;;;;;;;;;;;;;;41.89;32.45;100870.25;4860541;28;99626;-71
2023/08/24 08:40:28;;;;;;;;;;;;;;;42.43;32.11;100867.75;4862342;28;99623;-71
2023/08/24 08:42:59;;;;;;;;;;;;;;;42.96;32.16;100858.66;4850463;28;98249;-71
2023/08/24 08:45:28;;;;;;;;;;;;;;;43.40;32.25;100857.25;4864416;28;98138;-76
2023/08/24 08:48:01;;;;;;;;;;;;;;;43.51;32.37;100858.25;4865376;28;98136;-76
2023/08/24 08:50:27;;;;;;;;;;;;;;;43.78;32.39;100859.22;4866129;28;97990;-73
2023/08/24 08:52:53;;;;;;;;;;;;;;;44.22;32.11;100858.47;4862588;28;109011;-71
2023/08/24 08:55:19;;;;;;;;;;;;;;;44.61;32.00;100838.38;4848347;28;100051;-78
2023/08/24 08:57:49;;;;;;;;;;;;;;;44.83;31.99;100838.69;4857620;28;99825;-79
2023/08/24 09:00:18;;;;;;;;;;;;;;;45.03;31.95;100823.69;4841603;28;99520;-71
2023/08/24 09:02:45;;;;;;;;;;;;;;;45.17;31.91;100822.88;4870033;28;98112;-71
2023/08/24 09:05:12;;;;;;;;;;;;;;;45.28;31.82;100813.69;4845906;28;98302;-70
2023/08/24 09:07:41;;;;;;;;;;;;;;;45.21;31.98;100816.97;4848725;28;99043;-78
2023/08/24 09:10:08;;;;;;;;;;;;;;;45.26;32.13;100819.84;4857017;28;97807;-71
2023/08/24 09:12:34;;;;;;;;;;;;;;;45.24;32.36;100819.59;4852664;28;98617;-78
2023/08/24 09:15:04;;;;;;;;;;;;;;;44.81;32.36;100810.78;4848553;28;115532;-70
2023/08/24 09:17:30;;;;;;;;;;;;;;;45.03;32.17;100809.47;4843381;28;98840;-77
2023/08/24 09:20:00;;;;;;;;;;;;;;;45.50;32.22;100808.22;4869021;28;98754;-70
2023/08/24 09:22:26;;;;;;;;;;;;;;;45.18;32.25;100792.38;4864508;28;98089;-78
2023/08/24 09:24:54;;;;;;;;;;;;;;;43.00;33.89;100782.75;4864714;28;120642;-77
2023/08/24 09:27:21;;;;;;;;;;;;;;;41.02;35.69;100774.81;4880022;28;98917;-78
2023/08/24 09:29:50;;;;;;;;;;;;;;;40.23;36.00;100773.22;4878835;28;98447;-69
2023/08/24 09:32:24;;;;;;;;;;;;;;;39.49;36.44;100772.03;4866248;28;98122;-75
2023/08/24 09:34:52;;;;;;;;;;;;;;;38.82;36.51;100763.19;4848400;28;98164;-75
2023/08/24 09:37:20;;;;;;;;;;;;;;;38.37;36.92;100769.91;4868317;28;98234;-79
2023/08/24 09:39:48;;;;;;;;;;;;;;;37.87;37.18;100775.06;4881027;28;98108;-80
2023/08/24 09:42:15;;;;;;;;;;;;;;;37.42;36.89;100775.19;4872348;28;98140;-74
2023/08/24 09:44:45;;;;;;;;;;;;;;;36.99;37.34;100759.47;4868223;28;98099;-80
2023/08/24 09:47:12;;;;;;;;;;;;;;;36.36;37.82;100774.66;4880352;28;98210;-74
2023/08/24 09:49:38;;;;;;;;;;;;;;;35.81;38.31;100768.66;4902199;28;98302;-81
2023/08/24 09:52:07;;;;;;;;;;;;;;;35.39;38.34;100767.50;4884109;28;98576;-81
2023/08/24 09:54:39;;;;;;;;;;;;;;;34.97;38.45;100760.69;4866320;28;98618;-80
2023/08/24 09:57:08;;;;;;;;;;;;;;;34.58;38.34;100760.13;4850766;28;99750;-81
2023/08/24 09:59:34;;;;;;;;;;;;;;;34.32;38.56;100764.53;4860239;28;98274;-81
2023/08/24 10:02:02;;;;;;;;;;;;;;;34.07;38.82;100753.72;4863763;28;98172;-74
2023/08/24 10:04:35;;;;;;;;;;;;;;;33.86;38.69;100749.19;4865974;28;98695;-75
2023/08/24 10:07:11;;;;;;;;;;;;;;;33.77;38.33;100757.31;4888410;28;98797;-80
2023/08/24 10:10:04;;;;;;;;;;;;;;;33.83;38.42;100757.63;4865202;28;98178;-81
2023/08/24 10:12:39;;;;;;;;;;;;;;;33.95;38.22;100746.66;4880379;28;98042;-81
2023/08/24 10:15:11;;;;;;;;;;;;;;;33.98;37.66;100742.28;4872155;28;99772;-76
2023/08/24 10:17:38;;;;;;;;;;;;;;;33.78;38.21;100741.34;4887883;28;98257;-74
2023/08/24 10:20:06;;;;;;;;;;;;;;;33.57;37.92;100734.81;4853736;28;99847;-75
2023/08/24 10:22:35;;;;;;;;;;;;;;;33.42;37.90;100734.16;4865133;28;98277;-80
2023/08/24 10:25:02;;;;;;;;;;;;;;;33.38;37.98;100735.44;4867681;28;98016;-80
2023/08/24 10:27:31;;;;;;;;;;;;;;;33.43;38.17;100748.91;4885543;28;98453;-81
2023/08/24 10:29:59;;;;;;;;;;;;;;;33.55;38.04;100759.56;4898178;28;98316;-79
2023/08/24 10:32:26;;;;;;;;;;;;;;;33.77;37.69;100762.13;4885666;28;98659;-80
2023/08/24 10:34:53;;;;;;;;;;;;;;;34.08;36.87;100746.94;4867758;28;99997;-82
2023/08/24 10:37:28;;;;;;;;;;;;;;;34.11;37.13;100751.69;4884030;28;98759;-72
2023/08/24 10:39:55;;;;;;;;;;;;;;;34.37;36.90;100752.06;4869921;28;98044;-72
2023/08/24 10:42:21;;;;;;;;;;;;;;;34.49;36.74;100759.91;4868988;28;99742;-73
2023/08/24 10:44:48;;;;;;;;;;;;;;;34.52;37.05;100747.88;4884350;28;98203;-80
2023/08/24 10:47:22;;;;;;;;;;;;;;;34.83;36.56;100751.31;4868012;28;98017;-71
2023/08/24 10:49:58;;;;;;;;;;;;;;;35.24;36.37;100746.59;4849755;28;98855;-80
2023/08/24 10:52:30;;;;;;;;;;;;;;;35.71;35.69;100736.03;4866945;28;97888;-80
2023/08/24 10:54:56;;;;;;;;;;;;;;;36.14;35.39;100732.28;4898489;28;98025;-79
2023/08/24 10:57:23;;;;;;;;;;;;;;;36.21;35.51;100726.50;4883152;28;97967;-71
2023/08/24 11:00:11;;;;;;;;;;;;;;;36.56;35.31;100715.66;4879215;28;98198;-80
2023/08/24 11:02:50;;;;;;;;;;;;;;;36.80;35.02;100714.22;4898942;28;98171;-80
2023/08/24 11:05:17;;;;;;;;;;;;;;;36.46;35.86;100716.72;4883445;28;97915;-71
2023/08/24 11:07:51;;;;;;;;;;;;;;;36.18;36.00;100712.56;4882482;28;99808;-72
2023/08/24 11:10:18;;;;;;;;;;;;;;;35.55;36.52;100699.56;4868959;28;98250;-72
2023/08/24 11:13:04;;;;;;;;;;;;;;;35.09;37.22;100698.47;4868223;28;98406;-80
2023/08/24 11:15:34;;;;;;;;;;;;;;;34.66;37.47;100700.06;4887299;28;97982;-80
2023/08/24 11:18:18;;;;;;;;;;;;;;;34.28;37.41;100690.31;4877375;28;100065;-72
2023/08/24 11:20:45;;;;;;;;;;;;;;;34.09;37.90;100691.81;4891495;28;98220;-71
2023/08/24 11:23:12;;;;;;;;;;;;;;;34.23;37.65;100690.78;4828841;28;98637;-80
2023/08/24 11:25:38;;;;;;;;;;;;;;;34.31;37.39;100695.03;4865104;28;98618;-80
2023/08/24 11:28:05;;;;;;;;;;;;;;;34.16;37.33;100684.09;4865603;28;98664;-71
2023/08/24 11:30:32;;;;;;;;;;;;;;;33.93;37.76;100673.63;4860788;28;98216;-81
2023/08/24 11:32:59;;;;;;;;;;;;;;;33.68;37.54;100668.41;4847542;28;98206;-71
2023/08/24 11:35:26;;;;;;;;;;;;;;;33.51;37.70;100663.84;4851079;28;98262;-79
2023/08/24 11:37:55;;;;;;;;;;;;;;;33.42;37.54;100657.97;4849053;28;97995;-71
2023/08/24 11:40:28;;;;;;;;;;;;;;;33.65;37.66;100663.66;4856763;28;98618;-71
2023/08/24 11:42:56;;;;;;;;;;;;;;;34.47;36.46;100663.59;4862100;28;98365;-80
2023/08/24 11:45:22;;;;;;;;;;;;;;;33.96;37.30;100650.44;4843913;28;98136;-80
2023/08/24 11:47:49;;;;;;;;;;;;;;;34.06;37.09;100657.09;4864378;28;98333;-71
2023/08/24 11:50:16;;;;;;;;;;;;;;;34.20;36.99;100640.09;4860197;28;98423;-79
2023/08/24 11:52:42;;;;;;;;;;;;;;;34.53;36.91;100642.34;4848112;28;99609;-71
2023/08/24 11:55:09;;;;;;;;;;;;;;;35.23;36.02;100636.59;4848681;28;98217;-80
2023/08/24 11:57:36;;;;;;;;;;;;;;;36.19;35.13;100621.59;4846041;28;98348;-71
2023/08/24 12:00:04;;;;;;;;;;;;;;;36.64;34.96;100618.81;4849497;28;98151;-79
2023/08/24 12:02:30;;;;;;;;;;;;;;;37.05;35.20;100617.28;4840833;28;98023;-70
2023/08/24 12:04:57;;;;;;;;;;;;;;;37.29;35.05;100614.94;4848308;28;98153;-79
2023/08/24 12:07:24;;;;;;;;;;;;;;;37.56;34.81;100615.31;4829352;28;98143;-80
2023/08/24 12:09:52;;;;;;;;;;;;;;;37.88;35.02;100598.69;4842213;28;99462;-71
2023/08/24 12:12:20;;;;;;;;;;;;;;;37.78;34.93;100595.75;4857760;28;98246;-80
2023/08/24 12:14:47;;;;;;;;;;;;;;;38.02;35.14;100604.63;4857255;28;98208;-70
2023/08/24 12:17:14;;;;;;;;;;;;;;;37.87;35.17;100611.97;4847959;28;98422;-79
2023/08/24 12:19:44;;;;;;;;;;;;;;;37.78;35.68;100604.19;4884367;28;98407;-79
2023/08/24 12:22:17;;;;;;;;;;;;;;;37.01;36.54;100608.16;4899036;28;98220;-80
2023/08/24 12:24:47;;;;;;;;;;;;;;;36.84;36.40;100604.63;4868338;28;98098;-79
2023/08/24 12:27:20;;;;;;;;;;;;;;;36.67;36.00;100597.47;4885329;28;98239;-80
2023/08/24 12:29:46;;;;;;;;;;;;;;;36.42;36.42;100600.94;4902243;28;98467;-80
2023/08/24 12:32:15;;;;;;;;;;;;;;;35.96;36.99;100588.88;4885479;28;98243;-80
2023/08/24 12:34:41;;;;;;;;;;;;;;;35.55;37.25;100591.06;4869556;28;99484;-71
2023/08/24 12:37:07;;;;;;;;;;;;;;;35.24;37.32;100581.34;4883124;28;99412;-71
2023/08/24 12:39:38;;;;;;;;;;;;;;;34.96;37.24;100579.94;4868450;28;99727;-79